Time;durP1;ratioP1;P1;durP2;ratioP2;P2;SDS_P1;SDS_P2;PMS_P1;PMS_P2;Temp;Humidity;BMP_temperature;BMP_pressure;BME280_temperature;BME280_humidity;BME280_pressure;Samples;Min_cycle;Max_cycle;Signal;HPM_P1;HPM_P2
2023/11/11 00:00:11;;;;;;;;;;;8.70;87.70;;;;;;5074606;28;19932;-60
2023/11/11 00:02:44;;;;;;;;;;;8.70;87.60;;;;;;5059153;28;20271;-61
2023/11/11 00:05:17;;;;;;;;;;;8.70;87.60;;;;;;5076800;28;20035;-61
2023/11/11 00:07:51;;;;;;;;;;;8.70;87.70;;;;;;5068756;28;19947;-61
2023/11/11 00:10:30;;;;;;;;;;;8.70;87.60;;;;;;5071565;28;19931;-61
2023/11/11 00:13:05;;;;;;;;;;;8.70;87.70;;;;;;5067214;28;20336;-61
2023/11/11 00:15:38;;;;;;;;;;;8.70;87.70;;;;;;5076107;28;19928;-60
2023/11/11 00:18:11;;;;;;;;;;;8.70;87.60;;;;;;5077552;28;19932;-61
2023/11/11 00:20:47;;;;;;;;;;;8.70;87.70;;;;;;5075122;27;19924;-60
2023/11/11 00:23:14;;;;;;;;;;;8.70;87.60;;;;;;5078972;28;19924;-61
2023/11/11 00:25:47;;;;;;;;;;;8.70;87.70;;;;;;5075878;28;19932;-61
2023/11/11 00:28:22;;;;;;;;;;;8.70;87.70;;;;;;5077659;28;19928;-61
2023/11/11 00:30:55;;;;;;;;;;;8.70;87.60;;;;;;5073993;28;19929;-61
2023/11/11 00:33:28;;;;;;;;;;;8.70;87.60;;;;;;5074210;28;19935;-61
2023/11/11 00:36:05;;;;;;;;;;;8.60;87.60;;;;;;5059584;28;19929;-60
2023/11/11 00:38:38;;;;;;;;;;;8.60;87.70;;;;;;5077672;28;20007;-61
2023/11/11 00:41:12;;;;;;;;;;;8.60;87.60;;;;;;5057427;28;19925;-60
2023/11/11 00:43:47;;;;;;;;;;;8.70;87.60;;;;;;5078635;28;20035;-61
2023/11/11 00:46:20;;;;;;;;;;;8.70;87.60;;;;;;5073303;28;19936;-61
2023/11/11 00:48:53;;;;;;;;;;;8.60;87.50;;;;;;5074357;28;19935;-61
2023/11/11 00:51:26;;;;;;;;;;;8.70;87.60;;;;;;5070171;28;20353;-60
2023/11/11 00:54:00;;;;;;;;;;;8.60;87.70;;;;;;5068514;28;20114;-60
2023/11/11 00:56:32;;;;;;;;;;;8.60;87.70;;;;;;5075383;28;20024;-61
2023/11/11 00:59:07;;;;;;;;;;;8.60;87.70;;;;;;5074389;28;19936;-61
2023/11/11 01:01:40;;;;;;;;;;;8.70;87.70;;;;;;5072374;28;20363;-63
2023/11/11 01:04:13;;;;;;;;;;;8.60;87.70;;;;;;5069252;28;20012;-61
2023/11/11 01:06:46;;;;;;;;;;;8.60;87.70;;;;;;5070521;28;19974;-62
2023/11/11 01:09:20;;;;;;;;;;;8.60;87.70;;;;;;5073608;28;20022;-60
2023/11/11 01:11:52;;;;;;;;;;;8.70;87.60;;;;;;5079782;28;19960;-61
2023/11/11 01:14:27;;;;;;;;;;;8.60;87.80;;;;;;5079343;28;20444;-61
2023/11/11 01:17:02;;;;;;;;;;;8.60;87.80;;;;;;5079519;28;20007;-60
2023/11/11 01:19:35;;;;;;;;;;;8.70;87.80;;;;;;5083883;28;19924;-61
2023/11/11 01:22:09;;;;;;;;;;;8.60;87.90;;;;;;5049447;28;19946;-60
2023/11/11 01:24:43;;;;;;;;;;;8.60;87.80;;;;;;5059338;28;20016;-60
2023/11/11 01:27:16;;;;;;;;;;;8.60;87.80;;;;;;5051578;28;19929;-62
2023/11/11 01:29:51;;;;;;;;;;;8.60;87.90;;;;;;5078846;28;19928;-62
2023/11/11 01:32:24;;;;;;;;;;;8.60;87.80;;;;;;5077187;28;19952;-62
2023/11/11 01:34:57;;;;;;;;;;;8.60;87.80;;;;;;5061569;28;20336;-61
2023/11/11 01:37:30;;;;;;;;;;;8.60;87.80;;;;;;5080873;28;19956;-63
2023/11/11 01:40:04;;;;;;;;;;;8.60;87.80;;;;;;5070239;28;19931;-63
2023/11/11 01:42:37;;;;;;;;;;;8.60;87.80;;;;;;5076890;28;19928;-61
2023/11/11 01:45:06;;;;;;;;;;;8.60;87.80;;;;;;5079955;28;19947;-60
2023/11/11 01:47:38;;;;;;;;;;;8.50;87.90;;;;;;5051974;28;20016;-61
2023/11/11 01:50:13;;;;;;;;;;;8.50;88.00;;;;;;5076250;28;19924;-60
2023/11/11 01:52:47;;;;;;;;;;;8.50;88.00;;;;;;5079879;28;19928;-61
2023/11/11 01:55:23;;;;;;;;;;;8.50;88.00;;;;;;5080243;28;19928;-60
2023/11/11 01:57:58;;;;;;;;;;;8.40;88.00;;;;;;5054421;28;19931;-61
2023/11/11 02:00:26;;;;;;;;;;;8.50;88.10;;;;;;5059963;28;19932;-60
2023/11/11 02:03:00;;;;;;;;;;;8.50;88.10;;;;;;5073981;28;19939;-60
2023/11/11 02:05:34;;;;;;;;;;;8.50;88.10;;;;;;5074891;28;19925;-60
2023/11/11 02:08:08;;;;;;;;;;;8.40;88.10;;;;;;5080439;28;20441;-60
2023/11/11 02:10:41;;;;;;;;;;;8.50;88.20;;;;;;5076351;28;19928;-63
2023/11/11 02:13:08;;;;;;;;;;;8.50;88.20;;;;;;5080563;28;19973;-61
2023/11/11 02:15:42;;;;;;;;;;;8.50;88.20;;;;;;5077536;28;19928;-62
2023/11/11 02:18:15;;;;;;;;;;;8.50;88.20;;;;;;5081137;28;19930;-61
2023/11/11 02:20:49;;;;;;;;;;;8.40;88.20;;;;;;5077154;28;19933;-61
2023/11/11 02:23:23;;;;;;;;;;;8.40;88.30;;;;;;5080851;28;20022;-61
2023/11/11 02:25:57;;;;;;;;;;;8.40;88.20;;;;;;5078645;28;19963;-60
2023/11/11 02:28:34;;;;;;;;;;;8.40;88.30;;;;;;5081021;28;19931;-60
2023/11/11 02:31:09;;;;;;;;;;;8.40;88.20;;;;;;5079137;28;20023;-60
2023/11/11 02:33:43;;;;;;;;;;;8.40;88.30;;;;;;5079383;28;19931;-61
2023/11/11 02:36:17;;;;;;;;;;;8.40;88.40;;;;;;5077320;28;19930;-61
2023/11/11 02:38:52;;;;;;;;;;;8.40;88.50;;;;;;5054569;28;19926;-61
2023/11/11 02:41:27;;;;;;;;;;;8.30;88.60;;;;;;5078008;28;19931;-62
2023/11/11 02:44:00;;;;;;;;;;;8.30;88.70;;;;;;5077393;28;19924;-60
2023/11/11 02:46:34;;;;;;;;;;;8.30;88.80;;;;;;5059154;28;20378;-62
2023/11/11 02:49:07;;;;;;;;;;;8.30;88.80;;;;;;5067756;28;19978;-60
2023/11/11 02:51:40;;;;;;;;;;;8.30;88.90;;;;;;5060794;28;20377;-61
2023/11/11 02:54:13;;;;;;;;;;;8.30;88.90;;;;;;5055565;28;19924;-61
2023/11/11 02:56:48;;;;;;;;;;;8.30;88.80;;;;;;5053503;28;20019;-61
2023/11/11 02:59:20;;;;;;;;;;;8.30;88.90;;;;;;5077029;28;19932;-61
2023/11/11 03:01:53;;;;;;;;;;;8.30;89.00;;;;;;5069774;28;19933;-60
2023/11/11 03:04:27;;;;;;;;;;;8.40;89.00;;;;;;5056681;28;19943;-60
2023/11/11 03:07:01;;;;;;;;;;;8.30;89.00;;;;;;5076197;28;19939;-59
2023/11/11 03:09:33;;;;;;;;;;;8.40;89.00;;;;;;5077477;28;19924;-60
2023/11/11 03:12:09;;;;;;;;;;;8.30;89.20;;;;;;5055672;28;19924;-60
2023/11/11 03:14:43;;;;;;;;;;;8.30;89.10;;;;;;5077496;28;19975;-62
2023/11/11 03:17:16;;;;;;;;;;;8.30;89.10;;;;;;5076405;28;19930;-61
2023/11/11 03:19:50;;;;;;;;;;;8.30;89.20;;;;;;5075356;28;19970;-60
2023/11/11 03:22:24;;;;;;;;;;;8.40;89.20;;;;;;5078255;28;19954;-61
2023/11/11 03:24:56;;;;;;;;;;;8.40;89.20;;;;;;5071426;28;19934;-61
2023/11/11 03:27:31;;;;;;;;;;;8.30;89.30;;;;;;5058720;28;20015;-61
2023/11/11 03:30:06;;;;;;;;;;;8.30;89.30;;;;;;5070916;28;20322;-60
2023/11/11 03:32:40;;;;;;;;;;;8.30;89.40;;;;;;5077313;28;19924;-66
2023/11/11 03:35:13;;;;;;;;;;;8.30;89.40;;;;;;5077638;28;20368;-62
2023/11/11 03:37:45;;;;;;;;;;;8.30;89.50;;;;;;5078638;28;20422;-61
2023/11/11 03:40:18;;;;;;;;;;;8.30;89.60;;;;;;5060552;28;19928;-61
2023/11/11 03:42:53;;;;;;;;;;;8.20;89.60;;;;;;5056881;28;19933;-61
2023/11/11 03:45:26;;;;;;;;;;;8.20;89.70;;;;;;5058711;28;19982;-60
2023/11/11 03:47:59;;;;;;;;;;;8.10;89.70;;;;;;5073122;28;19936;-61
2023/11/11 03:50:26;;;;;;;;;;;8.10;89.30;;;;;;5077484;28;19924;-61
2023/11/11 03:53:00;;;;;;;;;;;8.20;89.00;;;;;;5068845;28;19968;-61
2023/11/11 03:55:32;;;;;;;;;;;8.10;88.10;;;;;;5070580;28;19928;-61
2023/11/11 03:58:08;;;;;;;;;;;8.10;88.20;;;;;;5075452;28;20068;-61
2023/11/11 04:00:43;;;;;;;;;;;8.10;88.10;;;;;;5076285;28;19965;-61
2023/11/11 04:03:17;;;;;;;;;;;8.10;87.70;;;;;;5059473;28;19932;-61
2023/11/11 04:05:57;;;;;;;;;;;8.10;87.60;;;;;;5065782;28;20041;-60
2023/11/11 04:08:31;;;;;;;;;;;8.10;87.70;;;;;;5076463;28;19985;-61
2023/11/11 04:11:06;;;;;;;;;;;8.00;87.70;;;;;;5066764;28;19954;-62
2023/11/11 04:13:41;;;;;;;;;;;8.00;87.70;;;;;;5060420;28;20227;-66
2023/11/11 04:16:15;;;;;;;;;;;7.90;87.70;;;;;;5070936;28;20461;-61
2023/11/11 04:18:48;;;;;;;;;;;7.90;87.70;;;;;;5069473;28;20051;-61
2023/11/11 04:21:21;;;;;;;;;;;8.00;87.70;;;;;;5068385;28;20452;-64
2023/11/11 04:23:55;;;;;;;;;;;8.00;87.70;;;;;;5076346;28;20379;-62
2023/11/11 04:26:21;;;;;;;;;;;7.90;87.80;;;;;;5078516;28;19929;-63
2023/11/11 04:28:58;;;;;;;;;;;7.90;88.00;;;;;;5074874;28;19932;-64
2023/11/11 04:31:31;;;;;;;;;;;7.90;88.00;;;;;;5073835;28;19933;-65
2023/11/11 04:34:04;;;;;;;;;;;7.90;87.90;;;;;;5076117;28;19971;-64
2023/11/11 04:36:37;;;;;;;;;;;8.00;87.90;;;;;;5075979;28;19929;-63
2023/11/11 04:39:10;;;;;;;;;;;7.90;87.80;;;;;;5077228;28;19928;-63
2023/11/11 04:41:44;;;;;;;;;;;7.90;87.90;;;;;;5078437;28;19995;-65
2023/11/11 04:44:18;;;;;;;;;;;7.90;87.90;;;;;;5076258;28;19930;-64
2023/11/11 04:46:52;;;;;;;;;;;7.90;88.00;;;;;;5073566;28;19996;-64
2023/11/11 04:49:25;;;;;;;;;;;7.90;87.80;;;;;;5069762;28;20010;-64
2023/11/11 04:51:58;;;;;;;;;;;7.90;87.90;;;;;;5074861;28;19942;-63
2023/11/11 04:54:30;;;;;;;;;;;7.90;88.00;;;;;;5077257;28;19928;-64
2023/11/11 04:57:03;;;;;;;;;;;7.90;88.00;;;;;;5074700;28;19942;-65
2023/11/11 04:59:38;;;;;;;;;;;7.80;87.90;;;;;;5075370;28;20390;-65
2023/11/11 05:02:04;;;;;;;;;;;7.90;88.00;;;;;;5073873;28;19924;-65
2023/11/11 05:04:38;;;;;;;;;;;7.80;87.90;;;;;;5077380;28;19925;-64
2023/11/11 05:07:04;;;;;;;;;;;7.80;87.90;;;;;;5074652;28;19936;-64
2023/11/11 05:09:37;;;;;;;;;;;7.90;87.90;;;;;;5068252;28;19938;-64
2023/11/11 05:12:06;;;;;;;;;;;7.80;87.80;;;;;;5077370;28;20366;-64
2023/11/11 05:14:41;;;;;;;;;;;7.70;87.90;;;;;;5072350;28;19962;-65
2023/11/11 05:17:16;;;;;;;;;;;7.70;87.90;;;;;;5056291;28;19933;-63
2023/11/11 05:19:50;;;;;;;;;;;7.70;88.00;;;;;;5053836;28;20051;-65
2023/11/11 05:22:23;;;;;;;;;;;7.70;88.00;;;;;;5056695;28;19926;-65
2023/11/11 05:24:57;;;;;;;;;;;7.80;88.00;;;;;;5072002;28;19925;-65
2023/11/11 05:27:30;;;;;;;;;;;7.80;87.90;;;;;;5078029;28;19964;-65
2023/11/11 05:30:06;;;;;;;;;;;7.70;87.90;;;;;;5076464;28;20015;-63
2023/11/11 05:32:39;;;;;;;;;;;7.70;87.90;;;;;;5076254;28;19924;-64
2023/11/11 05:35:12;;;;;;;;;;;7.80;88.00;;;;;;5077262;28;19979;-65
2023/11/11 05:37:45;;;;;;;;;;;7.70;88.00;;;;;;5074990;28;19928;-63
2023/11/11 05:40:19;;;;;;;;;;;7.70;87.80;;;;;;5074815;28;19924;-63
2023/11/11 05:42:53;;;;;;;;;;;7.80;87.80;;;;;;5076838;28;20006;-64
2023/11/11 05:45:27;;;;;;;;;;;7.80;87.70;;;;;;5075508;28;19931;-65
2023/11/11 05:48:01;;;;;;;;;;;7.70;87.80;;;;;;5077112;28;20374;-64
2023/11/11 05:50:34;;;;;;;;;;;7.70;87.80;;;;;;5075681;28;19932;-64
2023/11/11 05:53:07;;;;;;;;;;;7.70;88.00;;;;;;5071867;28;19932;-64
2023/11/11 05:55:40;;;;;;;;;;;7.60;88.10;;;;;;5071712;28;20015;-69
2023/11/11 05:58:14;;;;;;;;;;;7.70;88.30;;;;;;5077314;28;20023;-64
2023/11/11 06:00:49;;;;;;;;;;;7.60;88.20;;;;;;5075796;28;19931;-64
2023/11/11 06:03:16;;;;;;;;;;;7.60;88.40;;;;;;5080267;28;20420;-64
2023/11/11 06:05:49;;;;;;;;;;;7.60;88.40;;;;;;5079411;28;19935;-63
2023/11/11 06:08:22;;;;;;;;;;;7.60;88.30;;;;;;5073322;28;19938;-63
2023/11/11 06:10:56;;;;;;;;;;;7.60;88.40;;;;;;5076759;28;19933;-62
2023/11/11 06:13:29;;;;;;;;;;;7.60;88.40;;;;;;5076660;28;19928;-64
2023/11/11 06:16:04;;;;;;;;;;;7.60;88.50;;;;;;5077704;28;19947;-64
2023/11/11 06:18:38;;;;;;;;;;;7.60;88.60;;;;;;5079838;28;19924;-63
2023/11/11 06:21:08;;;;;;;;;;;7.60;88.60;;;;;;5075957;28;20371;-64
2023/11/11 06:23:41;;;;;;;;;;;7.60;88.60;;;;;;5080356;28;20023;-65
2023/11/11 06:26:14;;;;;;;;;;;7.60;88.80;;;;;;5075423;28;20027;-64
2023/11/11 06:28:40;;;;;;;;;;;7.50;89.00;;;;;;5073898;28;20023;-64
2023/11/11 06:31:15;;;;;;;;;;;7.40;89.10;;;;;;5076519;28;19960;-64
2023/11/11 06:33:49;;;;;;;;;;;7.50;89.20;;;;;;5080332;28;19928;-64
2023/11/11 06:36:22;;;;;;;;;;;7.40;89.20;;;;;;5080209;28;19928;-63
2023/11/11 06:38:55;;;;;;;;;;;7.40;89.30;;;;;;5074203;28;20010;-63
2023/11/11 06:41:28;;;;;;;;;;;7.50;89.40;;;;;;5075052;28;19928;-66
2023/11/11 06:44:01;;;;;;;;;;;7.50;89.40;;;;;;5078574;28;19928;-66
2023/11/11 06:46:35;;;;;;;;;;;7.50;89.50;;;;;;5078132;28;19928;-67
2023/11/11 06:49:09;;;;;;;;;;;7.40;89.50;;;;;;5076352;28;20015;-67
2023/11/11 06:51:42;;;;;;;;;;;7.50;89.60;;;;;;5071793;28;19932;-66
2023/11/11 06:54:15;;;;;;;;;;;7.50;89.70;;;;;;5076867;28;19924;-66
2023/11/11 06:56:49;;;;;;;;;;;7.40;89.70;;;;;;5074474;28;19967;-66
2023/11/11 06:59:22;;;;;;;;;;;7.50;89.70;;;;;;5078602;28;19931;-67
2023/11/11 07:01:56;;;;;;;;;;;7.50;89.50;;;;;;5074952;28;20754;-66
2023/11/11 07:04:30;;;;;;;;;;;7.50;89.60;;;;;;5076547;28;19970;-65
2023/11/11 07:07:03;;;;;;;;;;;7.50;89.80;;;;;;5077899;28;19931;-66
2023/11/11 07:09:38;;;;;;;;;;;7.50;89.80;;;;;;5079118;28;20278;-68
2023/11/11 07:12:13;;;;;;;;;;;7.50;89.70;;;;;;5071238;28;19935;-67
2023/11/11 07:14:46;;;;;;;;;;;7.50;89.80;;;;;;5074341;28;19925;-67
2023/11/11 07:17:20;;;;;;;;;;;7.60;89.80;;;;;;5074772;28;20025;-67
2023/11/11 07:19:54;;;;;;;;;;;7.50;89.80;;;;;;5077937;28;19928;-66
2023/11/11 07:22:27;;;;;;;;;;;7.60;89.70;;;;;;5077689;28;19925;-66
2023/11/11 07:25:00;;;;;;;;;;;7.60;89.80;;;;;;5071864;28;20288;-66
2023/11/11 07:27:34;;;;;;;;;;;7.50;89.90;;;;;;5072730;28;19929;-67
2023/11/11 07:30:10;;;;;;;;;;;7.50;89.80;;;;;;5075210;28;20250;-66
2023/11/11 07:32:44;;;;;;;;;;;7.60;89.90;;;;;;5077104;28;19978;-66
2023/11/11 07:35:18;;;;;;;;;;;7.60;89.90;;;;;;5078678;28;20013;-65
2023/11/11 07:37:52;;;;;;;;;;;7.60;89.90;;;;;;5075103;28;20023;-66
2023/11/11 07:40:26;;;;;;;;;;;7.60;89.90;;;;;;5071482;28;20286;-67
2023/11/11 07:42:59;;;;;;;;;;;7.60;89.80;;;;;;5074328;28;19934;-66
2023/11/11 07:45:32;;;;;;;;;;;7.70;89.70;;;;;;5073221;28;19932;-66
2023/11/11 07:48:06;;;;;;;;;;;7.70;89.80;;;;;;5056125;28;19978;-65
2023/11/11 07:50:40;;;;;;;;;;;7.60;89.70;;;;;;5055532;28;20376;-66
2023/11/11 07:53:14;;;;;;;;;;;7.60;89.80;;;;;;5053347;28;19933;-66
2023/11/11 07:55:48;;;;;;;;;;;7.60;89.90;;;;;;5055854;28;20330;-65
2023/11/11 07:58:22;;;;;;;;;;;7.70;89.80;;;;;;5053990;28;19935;-65
2023/11/11 08:00:56;;;;;;;;;;;7.70;89.70;;;;;;5054302;28;20023;-66
2023/11/11 08:03:32;;;;;;;;;;;7.60;89.80;;;;;;5054496;28;19924;-67
2023/11/11 08:06:05;;;;;;;;;;;7.60;89.90;;;;;;5057031;28;19928;-66
2023/11/11 08:08:40;;;;;;;;;;;7.70;90.00;;;;;;5052446;28;19943;-66
2023/11/11 08:11:15;;;;;;;;;;;7.70;90.00;;;;;;5057508;28;20427;-66
2023/11/11 08:13:48;;;;;;;;;;;7.70;90.20;;;;;;5052193;28;20387;-64
2023/11/11 08:16:21;;;;;;;;;;;7.70;90.30;;;;;;5057094;28;20291;-65
2023/11/11 08:18:55;;;;;;;;;;;7.70;90.00;;;;;;5075797;28;20456;-65
2023/11/11 08:21:32;;;;;;;;;;;7.70;90.20;;;;;;5073606;28;20405;-65
2023/11/11 08:24:05;;;;;;;;;;;7.70;90.10;;;;;;5055632;28;20084;-65
2023/11/11 08:26:38;;;;;;;;;;;7.70;90.10;;;;;;5057159;28;19928;-66
2023/11/11 08:29:11;;;;;;;;;;;7.70;90.10;;;;;;5052314;28;19947;-66
2023/11/11 08:31:45;;;;;;;;;;;7.80;90.10;;;;;;5056493;28;19932;-65
2023/11/11 08:34:19;;;;;;;;;;;7.80;90.10;;;;;;5057900;28;19929;-64
2023/11/11 08:36:53;;;;;;;;;;;7.80;90.00;;;;;;5062618;28;20405;-64
2023/11/11 08:39:20;;;;;;;;;;;7.80;90.10;;;;;;5056142;28;20006;-66
2023/11/11 08:41:54;;;;;;;;;;;7.90;90.10;;;;;;5056718;28;19932;-66
2023/11/11 08:44:27;;;;;;;;;;;7.80;90.20;;;;;;5057958;28;19931;-66
2023/11/11 08:47:01;;;;;;;;;;;7.90;90.10;;;;;;5052389;28;20019;-67
2023/11/11 08:49:35;;;;;;;;;;;7.90;90.10;;;;;;5068326;28;19924;-66
2023/11/11 08:52:09;;;;;;;;;;;7.90;90.00;;;;;;5073956;28;19944;-65
2023/11/11 08:54:43;;;;;;;;;;;7.90;89.70;;;;;;5076632;28;19935;-65
2023/11/11 08:57:16;;;;;;;;;;;7.90;89.40;;;;;;5076664;28;19924;-65
2023/11/11 08:59:49;;;;;;;;;;;8.00;89.50;;;;;;5075185;28;19935;-65
2023/11/11 09:02:22;;;;;;;;;;;7.90;89.50;;;;;;5070721;28;19935;-61
2023/11/11 09:04:56;;;;;;;;;;;7.90;89.60;;;;;;5067784;28;19924;-62
2023/11/11 09:07:30;;;;;;;;;;;7.90;89.60;;;;;;5072155;28;19928;-60
2023/11/11 09:10:10;;;;;;;;;;;7.90;89.70;;;;;;5076185;28;19955;-60
2023/11/11 09:12:43;;;;;;;;;;;8.00;89.60;;;;;;5076027;28;19959;-61
2023/11/11 09:15:10;;;;;;;;;;;8.00;89.40;;;;;;5071399;28;19924;-60
2023/11/11 09:17:44;;;;;;;;;;;8.00;89.70;;;;;;5075684;28;20406;-61
2023/11/11 09:20:21;;;;;;;;;;;7.90;89.60;;;;;;5074935;28;19928;-61
2023/11/11 09:22:55;;;;;;;;;;;8.00;89.60;;;;;;5074025;28;20023;-61
2023/11/11 09:25:30;;;;;;;;;;;8.10;89.40;;;;;;5074668;28;19925;-61
2023/11/11 09:28:04;;;;;;;;;;;8.10;89.30;;;;;;5072598;28;19929;-61
2023/11/11 09:30:37;;;;;;;;;;;8.20;89.20;;;;;;5073512;28;19933;-60
2023/11/11 09:33:11;;;;;;;;;;;8.20;89.10;;;;;;5074439;28;19932;-60
2023/11/11 09:35:46;;;;;;;;;;;8.20;89.00;;;;;;5078106;28;19924;-60
2023/11/11 09:38:19;;;;;;;;;;;8.20;89.30;;;;;;5078961;28;19963;-61
2023/11/11 09:40:52;;;;;;;;;;;8.30;89.10;;;;;;5076859;28;19924;-60
2023/11/11 09:43:25;;;;;;;;;;;8.20;89.10;;;;;;5078357;28;19924;-60
2023/11/11 09:45:59;;;;;;;;;;;8.20;89.00;;;;;;5076928;28;19931;-61
2023/11/11 09:48:32;;;;;;;;;;;8.20;89.10;;;;;;5077964;28;19924;-61
2023/11/11 09:51:06;;;;;;;;;;;8.20;88.90;;;;;;5058004;28;19932;-61
2023/11/11 09:53:41;;;;;;;;;;;8.20;88.90;;;;;;5056919;28;20008;-64
2023/11/11 09:56:16;;;;;;;;;;;8.20;88.80;;;;;;5060066;28;19929;-61
2023/11/11 09:58:53;;;;;;;;;;;8.20;88.80;;;;;;5057966;28;19935;-62
2023/11/11 10:01:26;;;;;;;;;;;8.20;88.90;;;;;;5054860;28;20731;-60
2023/11/11 10:04:00;;;;;;;;;;;8.30;88.70;;;;;;5059714;28;20398;-60
2023/11/11 10:06:35;;;;;;;;;;;8.40;88.40;;;;;;5061867;28;19937;-61
2023/11/11 10:09:12;;;;;;;;;;;8.40;88.40;;;;;;5057168;28;19928;-61
2023/11/11 10:11:45;;;;;;;;;;;8.40;88.20;;;;;;5056172;28;19939;-75
2023/11/11 10:14:21;;;;;;;;;;;8.40;88.20;;;;;;5056991;28;19932;-73
2023/11/11 10:16:58;;;;;;;;;;;8.40;88.10;;;;;;5056976;28;20019;-75
2023/11/11 10:19:32;;;;;;;;;;;8.40;88.10;;;;;;5058227;28;20005;-73
2023/11/11 10:22:07;;;;;;;;;;;8.50;88.10;;;;;;5058755;28;19935;-74
2023/11/11 10:24:45;;;;;;;;;;;8.40;87.90;;;;;;5056139;28;20131;-74
2023/11/11 10:27:19;;;;;;;;;;;8.50;87.90;;;;;;5059075;28;20345;-76
2023/11/11 10:29:52;;;;;;;;;;;8.50;87.90;;;;;;5058847;28;20009;-75
2023/11/11 10:32:27;;;;;;;;;;;8.50;87.80;;;;;;5054326;28;19933;-74
2023/11/11 10:35:00;;;;;;;;;;;8.50;87.90;;;;;;5057912;28;20019;-76
2023/11/11 10:37:34;;;;;;;;;;;8.60;87.70;;;;;;5062100;28;20032;-74
2023/11/11 10:40:09;;;;;;;;;;;8.60;87.60;;;;;;5081893;28;19924;-74
2023/11/11 10:42:43;;;;;;;;;;;8.50;87.60;;;;;;5078906;28;19940;-73
2023/11/11 10:45:16;;;;;;;;;;;8.50;87.30;;;;;;5077529;28;19946;-75
2023/11/11 10:47:50;;;;;;;;;;;8.40;87.50;;;;;;5080167;28;19927;-74
2023/11/11 10:50:23;;;;;;;;;;;8.50;87.50;;;;;;5075550;28;19955;-73
2023/11/11 10:53:04;;;;;;;;;;;8.50;87.50;;;;;;5076012;28;20011;-74
2023/11/11 10:55:39;;;;;;;;;;;8.40;87.60;;;;;;5077620;28;19931;-75
2023/11/11 10:58:16;;;;;;;;;;;8.50;87.50;;;;;;5076607;28;19935;-76
2023/11/11 11:00:50;;;;;;;;;;;8.60;87.40;;;;;;5073829;28;19928;-76
2023/11/11 11:03:24;;;;;;;;;;;8.60;87.30;;;;;;5078378;28;19947;-77
2023/11/11 11:06:02;;;;;;;;;;;8.70;87.10;;;;;;5078590;28;19932;-76
2023/11/11 11:08:38;;;;;;;;;;;8.70;86.60;;;;;;5076423;28;19971;-77
2023/11/11 11:11:16;;;;;;;;;;;8.70;86.70;;;;;;5077161;28;20466;-74
2023/11/11 11:13:52;;;;;;;;;;;8.80;86.70;;;;;;5076519;28;19933;-74
2023/11/11 11:16:28;;;;;;;;;;;8.70;86.00;;;;;;5076342;28;19924;-76
2023/11/11 11:19:01;;;;;;;;;;;8.90;85.90;;;;;;5078282;28;20295;-76
2023/11/11 11:21:35;;;;;;;;;;;8.90;85.60;;;;;;5077915;28;19950;-74
2023/11/11 11:24:11;;;;;;;;;;;9.00;85.40;;;;;;5076266;28;19924;-75
2023/11/11 11:26:44;;;;;;;;;;;8.90;84.00;;;;;;5074489;28;19964;-75
2023/11/11 11:29:17;;;;;;;;;;;8.90;84.10;;;;;;5053979;28;19928;-76
2023/11/11 11:32:03;;;;;;;;;;;8.90;83.70;;;;;;5078087;28;19931;-77
2023/11/11 11:34:37;;;;;;;;;;;9.00;83.20;;;;;;5077205;28;20024;-76
2023/11/11 11:37:05;;;;;;;;;;;9.10;83.00;;;;;;5076718;28;19928;-75
2023/11/11 11:39:43;;;;;;;;;;;9.10;82.70;;;;;;5076275;28;19947;-74
2023/11/11 11:42:18;;;;;;;;;;;9.10;82.10;;;;;;5078385;28;20067;-75
2023/11/11 11:44:56;;;;;;;;;;;9.00;81.80;;;;;;5078428;28;20031;-74
2023/11/11 11:47:33;;;;;;;;;;;9.10;81.70;;;;;;5076277;28;19928;-74
2023/11/11 11:50:06;;;;;;;;;;;9.10;81.40;;;;;;5072835;28;19966;-76
2023/11/11 11:52:42;;;;;;;;;;;9.10;80.70;;;;;;5074454;28;19928;-74
2023/11/11 11:55:16;;;;;;;;;;;9.10;80.80;;;;;;5075358;28;19931;-77
2023/11/11 11:57:53;;;;;;;;;;;9.10;80.50;;;;;;5076735;28;19929;-77
2023/11/11 12:00:27;;;;;;;;;;;9.20;79.90;;;;;;5075490;28;19931;-77
2023/11/11 12:03:02;;;;;;;;;;;9.20;79.80;;;;;;5077731;28;19928;-75
2023/11/11 12:05:35;;;;;;;;;;;9.20;78.80;;;;;;5073314;28;20394;-77
2023/11/11 12:08:08;;;;;;;;;;;9.20;78.80;;;;;;5050110;28;20020;-77
2023/11/11 12:10:47;;;;;;;;;;;9.20;78.90;;;;;;5054782;28;19940;-76
2023/11/11 12:13:21;;;;;;;;;;;9.20;78.50;;;;;;5053986;28;19987;-77
2023/11/11 12:15:55;;;;;;;;;;;9.20;78.20;;;;;;5058141;28;19933;-77
2023/11/11 12:18:28;;;;;;;;;;;9.20;78.40;;;;;;5077338;28;20422;-75
2023/11/11 12:20:55;;;;;;;;;;;9.30;78.10;;;;;;5075748;28;20026;-77
2023/11/11 12:23:29;;;;;;;;;;;9.30;77.90;;;;;;5074234;28;19952;-77
2023/11/11 12:26:04;;;;;;;;;;;9.30;77.50;;;;;;5074774;28;19930;-77
2023/11/11 12:28:38;;;;;;;;;;;9.20;77.40;;;;;;5073067;28;20389;-76
2023/11/11 12:31:05;;;;;;;;;;;9.30;77.30;;;;;;5057032;28;19924;-61
2023/11/11 12:33:38;;;;;;;;;;;9.30;77.20;;;;;;5075231;28;19928;-61
2023/11/11 12:36:11;;;;;;;;;;;9.30;76.90;;;;;;5078367;28;19956;-62
2023/11/11 12:38:45;;;;;;;;;;;9.30;76.40;;;;;;5079479;28;20030;-62
2023/11/11 12:41:20;;;;;;;;;;;9.30;76.70;;;;;;5075563;28;19928;-62
2023/11/11 12:43:56;;;;;;;;;;;9.30;76.20;;;;;;5050768;28;20299;-61
2023/11/11 12:46:30;;;;;;;;;;;9.30;76.20;;;;;;5075298;28;20011;-61
2023/11/11 12:49:07;;;;;;;;;;;9.30;76.10;;;;;;5077321;28;19940;-61
2023/11/11 12:51:41;;;;;;;;;;;9.30;75.70;;;;;;5074393;28;19932;-63
2023/11/11 12:54:16;;;;;;;;;;;9.30;76.20;;;;;;5072925;28;19925;-60
2023/11/11 12:56:52;;;;;;;;;;;9.40;76.00;;;;;;5079224;28;19928;-61
2023/11/11 12:59:25;;;;;;;;;;;9.40;75.70;;;;;;5073527;28;19932;-60
2023/11/11 13:02:00;;;;;;;;;;;9.30;75.60;;;;;;5074815;28;19932;-61
2023/11/11 13:04:33;;;;;;;;;;;9.20;75.60;;;;;;5078158;28;19928;-61
2023/11/11 13:07:17;;;;;;;;;;;9.30;75.50;;;;;;5054952;28;20434;-61
2023/11/11 13:09:52;;;;;;;;;;;9.30;75.50;;;;;;5055256;28;19933;-60
2023/11/11 13:12:26;;;;;;;;;;;9.30;74.60;;;;;;5054192;28;19928;-61
2023/11/11 13:15:01;;;;;;;;;;;9.40;75.30;;;;;;5057561;28;19933;-60
2023/11/11 13:17:34;;;;;;;;;;;9.40;75.40;;;;;;5057397;28;19929;-61
2023/11/11 13:20:08;;;;;;;;;;;9.40;75.20;;;;;;5075135;28;20497;-61
2023/11/11 13:22:42;;;;;;;;;;;9.40;75.30;;;;;;5076070;28;19929;-61
2023/11/11 13:25:22;;;;;;;;;;;9.40;74.80;;;;;;5078273;28;19939;-60
2023/11/11 13:27:57;;;;;;;;;;;9.40;75.10;;;;;;5066410;28;20349;-61
2023/11/11 13:30:32;;;;;;;;;;;9.30;75.20;;;;;;5075638;28;20029;-59
2023/11/11 13:33:08;;;;;;;;;;;9.20;75.30;;;;;;5074423;28;19931;-60
2023/11/11 13:35:45;;;;;;;;;;;9.20;75.50;;;;;;5070851;28;19935;-61
2023/11/11 13:38:20;;;;;;;;;;;9.20;75.20;;;;;;5068163;28;20854;-60
2023/11/11 13:40:53;;;;;;;;;;;9.20;75.10;;;;;;5072739;28;19928;-71
2023/11/11 13:43:27;;;;;;;;;;;9.30;75.60;;;;;;5074680;28;19933;-74
2023/11/11 13:46:02;;;;;;;;;;;9.30;75.30;;;;;;5073155;28;19924;-75
2023/11/11 13:48:36;;;;;;;;;;;9.30;75.00;;;;;;5075009;28;19931;-76
2023/11/11 13:51:10;;;;;;;;;;;9.30;74.80;;;;;;5073554;28;20005;-74
2023/11/11 13:53:45;;;;;;;;;;;9.30;75.10;;;;;;5074085;28;20301;-74
2023/11/11 13:56:18;;;;;;;;;;;9.40;74.90;;;;;;5065348;28;19932;-76
2023/11/11 13:58:46;;;;;;;;;;;9.40;74.70;;;;;;5072589;28;19924;-76
2023/11/11 14:01:21;;;;;;;;;;;9.40;74.90;;;;;;5073891;28;20052;-74
2023/11/11 14:03:55;;;;;;;;;;;9.40;74.10;;;;;;5071916;28;19924;-76
2023/11/11 14:06:32;;;;;;;;;;;9.40;74.50;;;;;;5074416;28;20394;-75
2023/11/11 14:09:06;;;;;;;;;;;9.30;74.50;;;;;;5051990;28;20358;-76
2023/11/11 14:11:40;;;;;;;;;;;9.30;74.80;;;;;;5063129;28;19946;-76
2023/11/11 14:14:16;;;;;;;;;;;9.30;74.60;;;;;;5074340;28;19943;-76
2023/11/11 14:16:49;;;;;;;;;;;9.40;75.00;;;;;;5072816;28;19932;-76
2023/11/11 14:19:22;;;;;;;;;;;9.40;75.10;;;;;;5078784;28;19952;-76
2023/11/11 14:21:55;;;;;;;;;;;9.40;74.80;;;;;;5077811;28;20011;-76
2023/11/11 14:24:28;;;;;;;;;;;9.30;74.70;;;;;;5078126;28;20340;-76
2023/11/11 14:27:07;;;;;;;;;;;9.20;75.10;;;;;;5078270;28;19939;-74
2023/11/11 14:29:42;;;;;;;;;;;9.10;75.00;;;;;;5073075;28;19932;-75
2023/11/11 14:32:16;;;;;;;;;;;9.10;75.40;;;;;;5077361;28;20030;-73
2023/11/11 14:34:49;;;;;;;;;;;9.10;75.40;;;;;;5078031;28;19989;-75
2023/11/11 14:37:22;;;;;;;;;;;9.00;75.70;;;;;;5075694;28;19985;-75
2023/11/11 14:39:55;;;;;;;;;;;9.10;75.90;;;;;;5078652;28;19924;-76
2023/11/11 14:42:30;;;;;;;;;;;9.00;75.80;;;;;;5079171;28;19963;-75
2023/11/11 14:44:58;;;;;;;;;;;9.00;76.40;;;;;;5077956;28;20331;-77
2023/11/11 14:47:31;;;;;;;;;;;9.00;76.50;;;;;;5077380;28;19924;-76
2023/11/11 14:50:05;;;;;;;;;;;9.00;76.70;;;;;;5077158;28;19925;-76
2023/11/11 14:52:38;;;;;;;;;;;9.00;76.50;;;;;;5078775;28;19936;-75
2023/11/11 14:55:13;;;;;;;;;;;9.00;76.80;;;;;;5076730;28;19933;-76
2023/11/11 14:57:46;;;;;;;;;;;9.00;77.20;;;;;;5077599;28;19938;-74
2023/11/11 15:00:23;;;;;;;;;;;9.00;77.50;;;;;;5077895;28;20019;-74
2023/11/11 15:02:57;;;;;;;;;;;9.00;77.60;;;;;;5077286;28;19978;-74
2023/11/11 15:05:30;;;;;;;;;;;9.10;77.70;;;;;;5078644;28;19975;-74
2023/11/11 15:08:03;;;;;;;;;;;9.00;77.60;;;;;;5075149;28;19979;-75